createdAt,value
2023-04-24T00:01:40.362Z,2.45
2023-04-24T00:04:08.219Z,2.42
2023-04-24T00:06:35.301Z,3.67
2023-04-24T00:09:02.818Z,1.50
2023-04-24T00:11:30.465Z,1.42
2023-04-24T00:13:58.150Z,2.50
2023-04-24T00:16:25.034Z,1.60
2023-04-24T00:18:53.592Z,0.93
2023-04-24T00:21:21.408Z,1.27
2023-04-24T00:23:48.953Z,1.13
2023-04-24T00:26:15.877Z,1.55
2023-04-24T00:28:42.705Z,1.00
2023-04-24T00:31:09.518Z,1.38
2023-04-24T00:33:36.969Z,1.10
2023-04-24T00:36:04.177Z,0.80
2023-04-24T00:38:31.240Z,1.83
2023-04-24T00:40:58.024Z,1.67
2023-04-24T00:43:24.884Z,0.73
2023-04-24T00:45:51.916Z,3.53
2023-04-24T00:48:20.727Z,1.45
2023-04-24T00:50:47.718Z,0.80
2023-04-24T00:53:14.749Z,1.70
2023-04-24T00:55:41.804Z,3.40
2023-04-24T00:58:08.965Z,2.10
2023-04-24T01:00:36.386Z,2.05
2023-04-24T01:03:07.206Z,2.00
2023-04-24T01:05:35.230Z,1.55
2023-04-24T01:08:03.880Z,2.38
2023-04-24T01:10:33.850Z,2.30
2023-04-24T01:13:01.042Z,3.17
2023-04-24T01:15:27.889Z,3.80
2023-04-24T01:17:54.846Z,4.35
2023-04-24T01:20:21.964Z,4.22
2023-04-24T01:22:49.570Z,4.75
2023-04-24T01:25:16.591Z,3.10
2023-04-24T01:27:43.916Z,4.25
2023-04-24T01:30:13.557Z,3.45
2023-04-24T01:32:41.355Z,3.33
2023-04-24T01:35:09.045Z,4.72
2023-04-24T01:37:38.069Z,3.97
2023-04-24T01:40:08.124Z,3.53
2023-04-24T01:42:36.050Z,5.43
2023-04-24T01:45:06.249Z,5.22
2023-04-24T01:47:34.505Z,4.57
2023-04-24T01:50:01.303Z,5.53
2023-04-24T01:52:29.830Z,4.65
2023-04-24T01:54:56.775Z,5.22
2023-04-24T01:57:24.031Z,4.55
2023-04-24T01:59:51.959Z,5.28
2023-04-24T02:02:19.238Z,5.22
2023-04-24T02:04:46.271Z,4.72
2023-04-24T02:07:13.316Z,6.43
2023-04-24T02:09:40.446Z,5.15
2023-04-24T02:12:07.453Z,4.15
2023-04-24T02:14:34.431Z,5.45
2023-04-24T02:17:01.674Z,3.88
2023-04-24T02:19:29.377Z,4.85
2023-04-24T02:21:56.198Z,5.07
2023-04-24T02:24:23.018Z,3.70
2023-04-24T02:26:49.884Z,4.10
2023-04-24T02:29:16.787Z,5.30
2023-04-24T02:31:43.576Z,4.75
2023-04-24T02:34:10.494Z,5.00
2023-04-24T02:36:37.382Z,3.67
2023-04-24T02:39:04.622Z,4.78
2023-04-24T02:41:33.701Z,4.68
2023-04-24T02:44:00.630Z,4.07
2023-04-24T02:46:27.838Z,4.57
2023-04-24T02:48:54.712Z,5.45
2023-04-24T02:51:21.706Z,3.72
2023-04-24T02:53:48.588Z,3.50
2023-04-24T02:56:15.635Z,2.65
2023-04-24T02:58:43.212Z,2.63
2023-04-24T03:01:11.075Z,3.10
2023-04-24T03:03:40.523Z,2.75
2023-04-24T03:06:09.001Z,3.22
2023-04-24T03:08:36.230Z,4.20
2023-04-24T03:11:03.767Z,2.75
2023-04-24T03:13:30.502Z,2.88
2023-04-24T03:15:57.421Z,1.92
2023-04-24T03:18:24.273Z,1.85
2023-04-24T03:20:53.034Z,4.10
2023-04-24T03:23:19.892Z,2.22
2023-04-24T03:25:46.731Z,2.10
2023-04-24T03:28:13.718Z,1.85
2023-04-24T03:30:48.265Z,3.28
2023-04-24T03:33:16.540Z,2.03
2023-04-24T03:35:53.937Z,2.15
2023-04-24T03:38:20.890Z,1.23
2023-04-24T03:40:53.768Z,1.35
2023-04-24T03:43:40.939Z,4.03
2023-04-24T03:46:10.271Z,2.55
2023-04-24T03:48:41.413Z,2.75
2023-04-24T03:51:09.456Z,3.08
2023-04-24T03:53:38.590Z,4.82
2023-04-24T03:56:06.116Z,2.28
2023-04-24T03:58:33.788Z,2.97
2023-04-24T04:01:01.084Z,3.42
2023-04-24T04:03:51.036Z,3.17
2023-04-24T04:06:22.440Z,4.45
2023-04-24T04:08:50.158Z,3.67
2023-04-24T04:11:16.934Z,4.65
2023-04-24T04:13:46.555Z,3.97
2023-04-24T04:16:13.664Z,4.65
2023-04-24T04:18:40.835Z,6.25
2023-04-24T04:21:08.645Z,4.60
2023-04-24T04:23:35.859Z,5.63
2023-04-24T04:26:13.725Z,5.00
2023-04-24T04:29:04.470Z,5.20
2023-04-24T04:31:32.703Z,4.90
2023-04-24T04:34:03.660Z,5.03
2023-04-24T04:36:32.555Z,7.47
2023-04-24T04:39:08.542Z,4.90
2023-04-24T04:41:49.768Z,5.75
2023-04-24T04:44:18.220Z,6.60
2023-04-24T04:46:45.977Z,4.97
2023-04-24T04:49:36.873Z,6.32
2023-04-24T04:52:05.992Z,6.80
2023-04-24T04:54:32.822Z,5.50
2023-04-24T04:56:59.904Z,5.45
2023-04-24T04:59:27.467Z,6.90
2023-04-24T05:02:01.177Z,5.80
2023-04-24T05:04:28.142Z,5.78
2023-04-24T05:06:55.148Z,5.15
2023-04-24T05:09:23.700Z,5.30
2023-04-24T05:11:55.353Z,4.50
2023-04-24T05:14:24.002Z,4.85
2023-04-24T05:16:51.059Z,5.97
2023-04-24T05:19:20.813Z,5.03
2023-04-24T05:21:47.686Z,3.47
2023-04-24T05:24:15.249Z,2.97
2023-04-24T05:27:14.460Z,2.53
2023-04-24T05:29:42.239Z,4.38
2023-04-24T05:32:09.970Z,4.60
2023-04-24T05:34:37.301Z,7.50
2023-04-24T05:37:04.758Z,23.60
2023-04-24T05:39:31.565Z,6.47
2023-04-24T05:42:00.409Z,3.17
2023-04-24T05:44:27.211Z,1.38
2023-04-24T05:46:54.313Z,2.92
2023-04-24T05:49:21.288Z,2.10
2023-04-24T05:51:48.465Z,1.52
2023-04-24T05:54:17.201Z,1.85
2023-04-24T05:56:44.179Z,1.48
2023-04-24T05:59:14.692Z,2.83
2023-04-24T06:01:41.823Z,1.88
2023-04-24T06:04:15.047Z,2.25
2023-04-24T06:06:42.183Z,1.63
2023-04-24T06:09:09.509Z,2.75
2023-04-24T06:11:36.426Z,1.67
2023-04-24T06:14:03.822Z,1.45
2023-04-24T06:16:43.023Z,3.35
2023-04-24T06:19:22.741Z,1.83
2023-04-24T06:21:49.535Z,4.93
2023-04-24T06:24:17.548Z,5.53
2023-04-24T06:26:44.345Z,7.63
2023-04-24T06:29:11.163Z,8.05
2023-04-24T06:31:38.174Z,9.90
2023-04-24T06:34:05.613Z,11.40
2023-04-24T06:36:33.466Z,12.25
2023-04-24T06:39:00.257Z,9.60
2023-04-24T06:41:27.339Z,13.25
2023-04-24T06:43:54.119Z,10.35
2023-04-24T06:46:23.318Z,11.98
2023-04-24T06:48:51.556Z,14.35
2023-04-24T06:51:19.054Z,15.75
2023-04-24T06:53:47.070Z,12.50
2023-04-24T06:56:14.993Z,13.18
2023-04-24T06:58:42.000Z,15.30
2023-04-24T07:01:08.881Z,13.95
2023-04-24T07:03:36.309Z,13.68
2023-04-24T07:06:04.233Z,12.10
2023-04-24T07:08:34.230Z,15.23
2023-04-24T07:11:01.442Z,11.52
2023-04-24T07:13:28.326Z,14.00
2023-04-24T07:15:57.054Z,15.75
2023-04-24T07:18:24.115Z,15.32
2023-04-24T07:20:53.761Z,12.63
2023-04-24T07:23:21.078Z,13.70
2023-04-24T07:25:47.973Z,13.23
2023-04-24T07:28:14.832Z,13.05
2023-04-24T07:30:41.614Z,12.48
2023-04-24T07:33:08.763Z,14.13
2023-04-24T07:35:36.355Z,14.30
2023-04-24T07:38:03.257Z,16.35
2023-04-24T07:40:30.097Z,18.88
2023-04-24T07:42:56.902Z,13.68
2023-04-24T07:45:24.845Z,13.70
2023-04-24T07:47:51.992Z,15.52
2023-04-24T07:50:19.007Z,17.92
2023-04-24T07:52:45.913Z,13.77
2023-04-24T07:55:12.776Z,11.25
2023-04-24T07:57:39.732Z,17.20
2023-04-24T08:00:07.501Z,16.60
2023-04-24T08:02:40.465Z,15.95
2023-04-24T08:05:08.102Z,14.05
2023-04-24T08:07:36.255Z,17.13
2023-04-24T08:10:03.850Z,17.23
2023-04-24T08:12:31.275Z,17.48
2023-04-24T08:14:58.176Z,11.77
2023-04-24T08:17:25.546Z,14.57
2023-04-24T08:19:54.142Z,14.70
2023-04-24T08:22:20.917Z,18.45
2023-04-24T08:24:47.734Z,14.75
2023-04-24T08:27:14.601Z,13.43
2023-04-24T08:29:41.639Z,15.48
2023-04-24T08:32:08.572Z,16.10
2023-04-24T08:34:35.470Z,10.95
2023-04-24T08:37:03.114Z,10.45
2023-04-24T08:39:29.972Z,10.80
2023-04-24T08:41:57.297Z,8.50
2023-04-24T08:44:24.203Z,12.68
2023-04-24T08:46:52.481Z,8.57
2023-04-24T08:49:20.872Z,15.88
2023-04-24T08:51:48.673Z,8.95
2023-04-24T08:54:15.908Z,11.43
2023-04-24T08:56:45.961Z,9.27
2023-04-24T08:59:13.521Z,14.60
2023-04-24T09:01:41.748Z,8.43
2023-04-24T09:04:12.104Z,7.93
2023-04-24T09:06:40.394Z,9.38
2023-04-24T09:09:09.109Z,9.80
2023-04-24T09:11:36.530Z,7.35
2023-04-24T09:14:04.479Z,6.43
2023-04-24T09:16:36.324Z,14.38
2023-04-24T09:19:04.223Z,9.25
2023-04-24T09:21:36.470Z,7.65
2023-04-24T09:24:15.338Z,12.00
2023-04-24T09:26:42.930Z,10.05
2023-04-24T09:29:19.310Z,10.13
2023-04-24T09:31:47.477Z,14.25
2023-04-24T09:34:14.516Z,11.65
2023-04-24T09:36:43.835Z,10.75
2023-04-24T09:39:18.325Z,5.57
2023-04-24T09:41:54.113Z,7.63
2023-04-24T09:44:23.263Z,8.70
2023-04-24T09:46:59.340Z,5.47
2023-04-24T09:49:36.750Z,6.22
2023-04-24T09:52:11.943Z,6.32
2023-04-24T09:54:41.352Z,8.43
2023-04-24T09:57:11.326Z,4.85
2023-04-24T09:59:46.787Z,4.07
2023-04-24T10:02:21.300Z,7.68
2023-04-24T10:05:00.292Z,7.13
2023-04-24T10:07:28.067Z,8.27
2023-04-24T10:09:56.014Z,5.03
2023-04-24T10:12:24.055Z,4.60
2023-04-24T10:14:51.446Z,5.53
2023-04-24T10:17:20.913Z,5.32
2023-04-24T10:19:49.443Z,3.65
2023-04-24T10:22:18.727Z,4.15
2023-04-24T10:24:48.330Z,8.15
2023-04-24T10:27:16.542Z,2.33
2023-04-24T10:29:46.396Z,1.77
2023-04-24T10:32:13.366Z,4.03
2023-04-24T10:34:40.384Z,3.38
2023-04-24T10:37:07.539Z,5.75
2023-04-24T10:39:34.630Z,4.07
2023-04-24T10:42:01.846Z,3.95
2023-04-24T10:44:37.691Z,4.65
2023-04-24T10:47:05.033Z,4.78
2023-04-24T10:49:33.305Z,3.38
2023-04-24T10:52:08.769Z,3.00
2023-04-24T10:54:41.634Z,4.05
2023-04-24T10:57:20.707Z,3.03
2023-04-24T11:00:26.303Z,3.00
2023-04-24T11:02:54.649Z,4.97
2023-04-24T11:05:23.060Z,8.70
2023-04-24T11:08:13.631Z,4.68
2023-04-24T11:11:01.057Z,6.90
2023-04-24T11:13:58.316Z,2.88
2023-04-24T11:16:52.531Z,4.78
2023-04-24T11:19:27.091Z,4.15
2023-04-24T11:22:05.689Z,5.22
2023-04-24T11:24:41.616Z,5.05
2023-04-24T11:27:23.230Z,4.40
2023-04-24T11:29:57.096Z,4.95
2023-04-24T11:32:35.020Z,2.90
2023-04-24T11:35:08.109Z,4.95
2023-04-24T11:37:37.759Z,3.78
2023-04-24T11:40:07.789Z,1.83
2023-04-24T11:42:43.866Z,2.22
2023-04-24T11:45:17.102Z,3.05
2023-04-24T11:47:45.235Z,3.38
2023-04-24T11:50:18.352Z,3.13
2023-04-24T11:52:48.008Z,3.35
2023-04-24T11:55:17.543Z,5.15
2023-04-24T11:57:50.701Z,4.30
2023-04-24T12:00:21.443Z,6.50
2023-04-24T12:02:49.769Z,5.32
2023-04-24T12:05:29.034Z,4.43
2023-04-24T12:07:55.972Z,6.68
2023-04-24T12:10:29.727Z,3.88
2023-04-24T12:12:58.601Z,2.85
2023-04-24T12:15:27.807Z,4.28
2023-04-24T12:17:56.088Z,4.95
2023-04-24T12:20:30.383Z,5.78
2023-04-24T12:22:59.342Z,8.38
2023-04-24T12:25:29.376Z,6.03
2023-04-24T12:28:06.434Z,5.15
2023-04-24T12:30:36.502Z,6.88
2023-04-24T12:33:04.521Z,6.07
2023-04-24T12:35:34.926Z,6.25
2023-04-24T12:38:14.149Z,6.18
2023-04-24T12:40:43.127Z,8.13
2023-04-24T12:43:18.848Z,5.40
2023-04-24T12:45:46.416Z,6.75
2023-04-24T12:48:15.061Z,10.50
2023-04-24T12:50:46.110Z,9.45
2023-04-24T12:53:14.264Z,5.65
2023-04-24T12:55:41.324Z,10.07
2023-04-24T12:58:08.833Z,11.18
2023-04-24T13:00:35.899Z,10.30
2023-04-24T13:03:03.293Z,13.05
2023-04-24T13:05:30.924Z,9.80
2023-04-24T13:07:58.681Z,5.43
2023-04-24T13:10:25.878Z,12.15
2023-04-24T13:12:52.835Z,9.98
2023-04-24T13:15:19.691Z,10.55
2023-04-24T13:17:46.500Z,8.45
2023-04-24T13:20:13.505Z,10.18
2023-04-24T13:22:40.391Z,13.05
2023-04-24T13:25:08.244Z,8.82
2023-04-24T13:27:35.226Z,8.10
2023-04-24T13:30:02.193Z,10.90
2023-04-24T13:32:29.921Z,13.18
2023-04-24T13:34:57.818Z,10.38
2023-04-24T13:37:24.590Z,9.10
2023-04-24T13:39:52.354Z,8.25
2023-04-24T13:42:19.796Z,12.73
2023-04-24T13:44:46.679Z,10.82
2023-04-24T13:47:13.454Z,14.15
2023-04-24T13:49:40.574Z,8.38
2023-04-24T13:52:08.216Z,7.28
2023-04-24T13:54:35.112Z,9.07
2023-04-24T13:57:03.874Z,7.97
2023-04-24T13:59:30.814Z,7.05
2023-04-24T14:01:57.632Z,10.43
2023-04-24T14:04:24.609Z,8.00
2023-04-24T14:06:52.050Z,9.50
2023-04-24T14:09:18.889Z,12.05
2023-04-24T14:11:45.875Z,6.75
2023-04-24T14:14:12.752Z,12.10
2023-04-24T14:16:39.788Z,14.68
2023-04-24T14:19:07.304Z,10.75
2023-04-24T14:21:34.631Z,9.13
2023-04-24T14:24:01.611Z,7.60
2023-04-24T14:26:28.577Z,10.73
2023-04-24T14:29:03.972Z,9.30
2023-04-24T14:31:40.807Z,8.52
2023-04-24T14:34:07.683Z,9.50
2023-04-24T14:36:34.660Z,11.13
2023-04-24T14:39:06.509Z,7.50
2023-04-24T14:41:36.592Z,10.05
2023-04-24T14:44:07.105Z,12.15
2023-04-24T14:46:34.255Z,13.80
2023-04-24T14:49:01.160Z,11.77
2023-04-24T14:51:28.100Z,10.90
2023-04-24T14:53:54.994Z,12.70
2023-04-24T14:56:21.856Z,7.65
2023-04-24T14:58:48.833Z,10.23
2023-04-24T15:01:17.705Z,10.30
2023-04-24T15:03:45.442Z,10.43
2023-04-24T15:06:12.879Z,9.77
2023-04-24T15:08:39.684Z,10.85
2023-04-24T15:11:06.616Z,8.48
2023-04-24T15:13:33.476Z,9.93
2023-04-24T15:16:00.368Z,11.30
2023-04-24T15:18:28.838Z,12.43
2023-04-24T15:20:56.425Z,13.77
2023-04-24T15:23:23.286Z,8.25
2023-04-24T15:25:50.275Z,8.50
2023-04-24T15:28:18.761Z,11.65
2023-04-24T15:30:45.737Z,10.38
2023-04-24T15:33:12.681Z,11.90
2023-04-24T15:35:39.671Z,10.77
2023-04-24T15:38:06.529Z,13.18
2023-04-24T15:40:33.368Z,7.55
2023-04-24T15:43:00.304Z,8.85
2023-04-24T15:45:27.221Z,13.13
2023-04-24T15:47:54.126Z,11.98
2023-04-24T15:50:22.546Z,9.52
2023-04-24T15:52:49.577Z,12.82
2023-04-24T15:55:16.523Z,8.13
2023-04-24T15:57:43.839Z,8.27
2023-04-24T16:00:11.503Z,10.93
2023-04-24T16:02:38.893Z,10.73
2023-04-24T16:05:07.452Z,9.90
2023-04-24T16:07:35.713Z,10.48
2023-04-24T16:10:02.760Z,10.05
2023-04-24T16:12:29.810Z,11.88
2023-04-24T16:14:56.739Z,8.52
2023-04-24T16:17:23.669Z,8.50
2023-04-24T16:19:50.485Z,9.73
2023-04-24T16:22:17.372Z,12.27
2023-04-24T16:24:44.611Z,10.52
2023-04-24T16:27:11.479Z,15.35
2023-04-24T16:29:38.281Z,14.15
2023-04-24T16:32:05.300Z,17.58
2023-04-24T16:34:32.157Z,11.48
2023-04-24T16:36:59.130Z,8.95
2023-04-24T16:39:27.019Z,11.75
2023-04-24T16:44:21.712Z,8.57
2023-04-24T16:46:48.714Z,11.73
2023-04-24T16:49:15.804Z,8.80
2023-04-24T16:51:42.686Z,12.88
2023-04-24T16:54:09.557Z,11.05
2023-04-24T16:56:36.628Z,11.25
2023-04-24T16:59:03.484Z,12.27
2023-04-24T17:01:30.734Z,10.90
2023-04-24T17:03:57.781Z,11.18
2023-04-24T17:06:24.645Z,9.70
2023-04-24T17:08:51.454Z,11.77
2023-04-24T17:11:18.523Z,10.63
2023-04-24T17:13:45.362Z,10.73
2023-04-24T17:16:12.289Z,12.95
2023-04-24T17:18:39.137Z,12.15
2023-04-24T17:21:06.042Z,24.08
2023-04-24T17:23:32.776Z,14.40
2023-04-24T17:25:59.723Z,16.58
2023-04-24T17:28:30.307Z,19.23
2023-04-24T17:30:58.446Z,13.48
2023-04-24T17:33:30.932Z,12.80
2023-04-24T17:35:59.733Z,17.02
2023-04-24T17:38:26.592Z,12.48
2023-04-24T17:40:53.674Z,15.13
2023-04-24T17:43:21.316Z,16.67
2023-04-24T17:45:50.837Z,10.82
2023-04-24T17:48:20.242Z,9.15
2023-04-24T17:50:47.006Z,12.40
2023-04-24T17:53:13.847Z,12.40
2023-04-24T17:55:43.380Z,12.70
2023-04-24T17:58:11.018Z,14.80
2023-04-24T18:00:38.440Z,10.63
2023-04-24T18:03:07.625Z,16.13
2023-04-24T18:05:37.608Z,12.80
2023-04-24T18:08:05.607Z,14.93
2023-04-24T18:10:36.181Z,21.48
2023-04-24T18:13:04.357Z,15.00
2023-04-24T18:15:31.277Z,13.63
2023-04-24T18:17:58.233Z,14.95
2023-04-24T18:20:25.269Z,11.20
2023-04-24T18:22:52.396Z,10.38
2023-04-24T18:25:26.136Z,9.55
2023-04-24T18:27:54.448Z,14.55
2023-04-24T18:30:22.193Z,12.65
2023-04-24T18:32:50.644Z,9.85
2023-04-24T18:35:19.072Z,11.50
2023-04-24T18:37:46.297Z,15.80
2023-04-24T18:40:16.922Z,13.48
2023-04-24T18:42:44.892Z,13.27
2023-04-24T18:45:14.614Z,12.13
2023-04-24T18:47:43.003Z,9.82
2023-04-24T18:50:10.979Z,9.35
2023-04-24T18:52:37.868Z,8.57
2023-04-24T18:55:06.532Z,10.98
2023-04-24T18:57:33.756Z,10.75
2023-04-24T19:00:00.683Z,6.80
2023-04-24T19:02:27.684Z,8.27
2023-04-24T19:04:54.544Z,7.65
2023-04-24T19:07:21.518Z,8.50
2023-04-24T19:09:48.265Z,7.13
2023-04-24T19:12:15.208Z,4.88
2023-04-24T19:14:42.145Z,4.25
2023-04-24T19:17:10.381Z,11.23
2023-04-24T19:19:37.185Z,7.78
2023-04-24T19:22:04.581Z,5.63
2023-04-24T19:24:33.355Z,5.43
2023-04-24T19:27:00.519Z,6.13
2023-04-24T19:29:27.478Z,7.68
2023-04-24T19:31:55.506Z,5.65
2023-04-24T19:34:22.285Z,6.03
2023-04-24T19:36:49.224Z,3.50
2023-04-24T19:39:16.246Z,5.95
2023-04-24T19:41:43.097Z,4.00
2023-04-24T19:44:10.491Z,4.25
2023-04-24T19:46:37.539Z,5.78
2023-04-24T19:49:04.462Z,5.63
2023-04-24T19:51:32.337Z,3.22
2023-04-24T19:53:59.687Z,6.20
2023-04-24T19:56:26.501Z,6.55
2023-04-24T19:58:53.518Z,4.43
2023-04-24T20:01:20.860Z,3.92
2023-04-24T20:03:47.862Z,7.35
2023-04-24T20:06:14.793Z,3.72
2023-04-24T20:08:42.638Z,6.85
2023-04-24T20:11:09.628Z,4.43
2023-04-24T20:13:36.485Z,4.80
2023-04-24T20:16:04.301Z,5.65
2023-04-24T20:18:31.315Z,4.75
2023-04-24T20:20:59.583Z,6.90
2023-04-24T20:23:27.130Z,5.32
2023-04-24T20:25:58.154Z,5.65
2023-04-24T20:28:26.922Z,5.05
2023-04-24T20:30:54.028Z,4.85
2023-04-24T20:33:21.621Z,3.97
2023-04-24T20:35:49.520Z,5.90
2023-04-24T20:38:18.463Z,5.18
2023-04-24T20:40:57.150Z,4.65
2023-04-24T20:43:28.848Z,3.28
2023-04-24T20:45:57.906Z,6.72
2023-04-24T20:48:26.079Z,5.75
2023-04-24T20:50:55.930Z,5.22
2023-04-24T20:53:23.306Z,7.97
2023-04-24T20:55:50.452Z,6.93
2023-04-24T20:58:23.818Z,12.18
2023-04-24T21:00:52.256Z,8.43
2023-04-24T21:03:19.644Z,9.50
2023-04-24T21:05:46.845Z,9.52
2023-04-24T21:08:13.752Z,7.15
2023-04-24T21:10:40.565Z,6.53
2023-04-24T21:13:07.379Z,6.32
2023-04-24T21:15:34.301Z,5.28
2023-04-24T21:18:02.179Z,7.78
2023-04-24T21:20:29.153Z,6.25
2023-04-24T21:22:55.975Z,8.10
2023-04-24T21:25:22.921Z,4.68
2023-04-24T21:27:49.807Z,7.47
2023-04-24T21:30:16.728Z,6.20
2023-04-24T21:32:43.529Z,6.57
2023-04-24T21:35:10.613Z,5.28
2023-04-24T21:37:39.135Z,7.30
2023-04-24T21:40:08.087Z,7.93
2023-04-24T21:42:35.270Z,8.30
2023-04-24T21:45:02.205Z,7.28
2023-04-24T21:47:28.986Z,9.02
2023-04-24T21:49:55.786Z,11.15
2023-04-24T21:52:22.650Z,6.63
2023-04-24T21:54:49.663Z,9.18
2023-04-24T21:57:16.654Z,7.13
2023-04-24T21:59:43.728Z,10.23
2023-04-24T22:02:10.759Z,7.25
2023-04-24T22:04:37.892Z,9.57
2023-04-24T22:07:05.167Z,7.28
2023-04-24T22:09:32.001Z,7.50
2023-04-24T22:11:58.865Z,6.38
2023-04-24T22:14:26.742Z,11.90
2023-04-24T22:16:56.964Z,8.48
2023-04-24T22:19:26.128Z,12.20
2023-04-24T22:21:53.119Z,8.07
2023-04-24T22:24:20.253Z,10.93
2023-04-24T22:26:47.201Z,8.15
2023-04-24T22:29:14.016Z,12.13
2023-04-24T22:31:41.493Z,11.98
2023-04-24T22:34:09.135Z,10.93
2023-04-24T22:36:36.014Z,8.85
2023-04-24T22:39:04.981Z,13.40
2023-04-24T22:41:32.080Z,11.60
2023-04-24T22:43:58.935Z,13.52
2023-04-24T22:46:26.128Z,10.43
2023-04-24T22:48:52.968Z,11.60
2023-04-24T22:51:19.771Z,13.50
2023-04-24T22:53:46.908Z,14.85
2023-04-24T22:56:14.528Z,12.60
2023-04-24T22:58:41.465Z,9.40
2023-04-24T23:01:08.311Z,10.52
2023-04-24T23:03:35.789Z,9.93
2023-04-24T23:06:02.715Z,13.32
2023-04-24T23:08:30.611Z,8.32
2023-04-24T23:10:57.697Z,13.70
2023-04-24T23:13:25.810Z,12.52
2023-04-24T23:15:54.591Z,12.75
2023-04-24T23:18:21.942Z,8.13
2023-04-24T23:20:48.858Z,11.63
2023-04-24T23:23:16.552Z,16.80
2023-04-24T23:25:43.448Z,9.75
2023-04-24T23:28:10.321Z,10.50
2023-04-24T23:30:37.141Z,13.63
2023-04-24T23:33:04.838Z,10.65
2023-04-24T23:35:31.959Z,9.30
2023-04-24T23:37:58.779Z,9.98
2023-04-24T23:40:25.558Z,10.63
2023-04-24T23:43:05.691Z,7.60
2023-04-24T23:45:34.227Z,7.78
2023-04-24T23:48:01.160Z,11.40
2023-04-24T23:50:27.993Z,12.57
2023-04-24T23:52:55.000Z,12.85
2023-04-24T23:55:22.127Z,15.50
2023-04-24T23:57:48.969Z,12.13
